createdAt,value
2023-02-15T08:34:27.493Z,54.43
2023-02-15T08:35:28.833Z,54.47
2023-02-15T08:36:32.559Z,54.87
2023-02-15T08:37:33.898Z,53.73
2023-02-15T08:38:35.593Z,53.66
2023-02-15T08:39:37.234Z,52.89
2023-02-15T08:40:39.064Z,53.36
2023-02-15T08:41:43.635Z,52.36
2023-02-15T08:42:45.043Z,51.13
2023-02-15T08:43:49.281Z,47.64
2023-02-15T08:44:52.594Z,46.43
2023-02-15T08:45:53.979Z,46.09
2023-02-15T08:46:55.755Z,45.80
2023-02-15T08:47:57.124Z,45.66
2023-02-15T08:48:59.176Z,43.96
2023-02-15T08:50:00.558Z,44.69
2023-02-15T08:51:28.612Z,45.64
2023-02-15T08:52:29.986Z,46.56
2023-02-15T08:53:31.340Z,45.02
2023-02-15T08:54:32.794Z,45.09
2023-02-15T08:55:34.133Z,45.52
2023-02-15T08:56:38.598Z,44.56
2023-02-15T08:57:45.768Z,43.56
2023-02-15T08:58:47.214Z,44.50
2023-02-15T08:59:49.425Z,44.90
2023-02-15T09:00:52.619Z,47.51
2023-02-15T09:01:54.768Z,46.11
2023-02-15T09:02:56.172Z,46.72
2023-02-15T09:04:07.333Z,46.92
2023-02-15T09:05:08.693Z,46.57
2023-02-15T09:06:10.098Z,46.05
2023-02-15T09:07:11.639Z,45.55
2023-02-15T09:08:13.145Z,45.49
2023-02-15T09:09:14.684Z,47.91
2023-02-15T09:10:16.383Z,48.23
2023-02-15T09:11:39.046Z,47.44
2023-02-15T09:12:40.452Z,47.03
2023-02-15T09:13:41.961Z,46.55
2023-02-15T09:14:43.342Z,46.43
2023-02-15T09:15:44.903Z,45.69
2023-02-15T09:16:49.500Z,44.98
2023-02-15T09:17:51.235Z,44.47
2023-02-15T09:18:52.926Z,45.28
2023-02-15T09:19:54.309Z,44.03
2023-02-15T09:20:56.320Z,43.73
2023-02-15T09:21:59.150Z,44.67
2023-02-15T09:23:00.899Z,45.02
2023-02-15T09:24:05.967Z,45.26
2023-02-15T09:25:07.754Z,45.58
2023-02-15T09:26:15.320Z,46.28
2023-02-15T09:27:16.776Z,45.86
2023-02-15T09:28:18.682Z,43.73
2023-02-15T09:29:20.847Z,43.88
2023-02-15T09:30:22.462Z,42.62
2023-02-15T09:31:26.997Z,43.06
2023-02-15T09:32:28.585Z,41.94
2023-02-15T09:33:29.958Z,42.38
2023-02-15T09:34:33.004Z,42.47
2023-02-15T09:35:35.513Z,42.35
2023-02-15T09:36:39.114Z,42.13
2023-02-15T09:37:40.630Z,41.78
2023-02-15T09:38:42.172Z,40.64
2023-02-15T09:39:44.676Z,40.63
2023-02-15T09:41:13.643Z,40.95
2023-02-15T09:42:38.227Z,42.62
2023-02-15T09:43:58.167Z,40.76
2023-02-15T09:45:11.955Z,41.05
2023-02-15T09:46:38.914Z,40.97
2023-02-15T09:48:11.093Z,41.36
2023-02-15T09:49:39.164Z,40.63
2023-02-15T09:50:52.992Z,41.13
2023-02-15T09:52:26.331Z,39.79
2023-02-15T09:53:35.261Z,40.55
2023-02-15T09:54:53.874Z,40.80
2023-02-15T09:56:16.479Z,40.48
2023-02-15T09:57:30.477Z,40.92
2023-02-15T09:58:56.756Z,40.78
2023-02-15T10:00:16.341Z,40.35
2023-02-15T10:01:23.769Z,40.72
2023-02-15T10:02:40.535Z,40.04
2023-02-15T10:03:54.582Z,41.11
2023-02-15T10:05:09.008Z,40.64
2023-02-15T10:06:42.761Z,40.15
2023-02-15T10:07:52.952Z,39.49
2023-02-15T10:09:15.568Z,40.27
2023-02-15T10:10:34.823Z,39.42
2023-02-15T10:11:51.081Z,39.68
2023-02-15T10:13:00.194Z,39.41
2023-02-15T10:14:11.046Z,40.21
2023-02-15T10:15:15.425Z,41.05
2023-02-15T10:16:53.154Z,40.41
2023-02-15T10:18:15.978Z,40.15
2023-02-15T10:19:50.570Z,38.21
2023-02-15T10:21:03.577Z,37.36
2023-02-15T10:22:19.970Z,37.22
2023-02-15T10:23:30.348Z,38.08
2023-02-15T10:25:05.678Z,37.82
2023-02-15T10:26:27.968Z,37.60
2023-02-15T10:27:32.215Z,37.04
2023-02-15T10:28:47.517Z,37.01
2023-02-15T10:29:56.773Z,37.12
2023-02-15T10:31:18.311Z,37.97
2023-02-15T10:32:27.448Z,38.41
2023-02-15T10:33:38.462Z,38.44
2023-02-15T10:35:01.961Z,38.57
2023-02-15T10:36:17.223Z,38.54
2023-02-15T10:37:27.996Z,38.03
2023-02-15T10:38:45.771Z,37.59
2023-02-15T10:39:52.502Z,37.16
2023-02-15T10:41:08.781Z,37.44
2023-02-15T10:42:16.591Z,37.15
2023-02-15T10:44:02.377Z,37.29
2023-02-15T10:45:22.598Z,37.33
2023-02-15T10:46:44.494Z,36.92
2023-02-15T10:48:07.385Z,37.76
2023-02-15T10:49:27.500Z,36.70
2023-02-15T10:50:50.096Z,37.18
2023-02-15T10:52:10.790Z,37.16
2023-02-15T10:53:24.258Z,37.06
2023-02-15T10:54:55.607Z,37.56
2023-02-15T10:56:01.247Z,37.28
2023-02-15T10:57:07.055Z,36.40
2023-02-15T10:58:14.384Z,37.07
2023-02-15T10:59:57.851Z,37.43
2023-02-15T11:01:20.799Z,37.55
2023-02-15T11:02:47.639Z,37.00
2023-02-15T11:04:31.564Z,36.46
2023-02-15T11:05:55.697Z,37.29
2023-02-15T11:07:29.544Z,36.50
2023-02-15T11:08:36.910Z,35.81
2023-02-15T11:09:43.705Z,36.62
2023-02-15T11:10:52.523Z,36.28
2023-02-15T11:11:58.163Z,36.52
2023-02-15T11:13:07.053Z,35.80
2023-02-15T11:14:18.807Z,36.10
2023-02-15T11:15:36.095Z,37.43
2023-02-15T11:16:41.769Z,36.81
2023-02-15T11:17:51.631Z,36.59
2023-02-15T11:18:59.502Z,36.99
2023-02-15T11:20:16.236Z,38.34
2023-02-15T11:21:17.521Z,38.52
2023-02-15T11:22:19.361Z,39.12
2023-02-15T11:23:21.774Z,36.80
2023-02-15T11:24:28.940Z,36.59
2023-02-15T11:25:35.190Z,36.49
2023-02-15T11:26:58.594Z,36.83
2023-02-15T11:28:04.422Z,36.70
2023-02-15T11:29:16.784Z,36.90
2023-02-15T11:30:28.894Z,36.50
2023-02-15T11:31:42.651Z,36.10
2023-02-15T11:32:52.286Z,35.95
2023-02-15T11:34:01.178Z,35.48
2023-02-15T11:35:18.445Z,36.19
2023-02-15T11:36:25.346Z,36.00
2023-02-15T11:37:41.724Z,34.92
2023-02-15T11:38:44.856Z,35.93
2023-02-15T11:39:52.417Z,35.21
2023-02-15T11:41:04.905Z,34.58
2023-02-15T11:42:14.689Z,34.38
2023-02-15T11:43:39.310Z,35.59
2023-02-15T11:45:12.944Z,34.92
2023-02-15T11:46:15.697Z,35.42
2023-02-15T11:47:17.191Z,36.87
2023-02-15T11:48:18.785Z,38.87
2023-02-15T11:49:23.484Z,36.84
2023-02-15T11:50:28.317Z,35.17
2023-02-15T11:51:30.001Z,35.12
2023-02-15T11:52:31.735Z,35.64
2023-02-15T11:53:37.042Z,35.23
2023-02-15T11:54:42.588Z,34.74
2023-02-15T11:55:49.428Z,33.74
2023-02-15T11:56:51.319Z,33.14
2023-02-15T11:58:03.428Z,32.05
2023-02-15T11:59:11.046Z,32.99
2023-02-15T12:00:36.878Z,33.50
2023-02-15T12:01:47.689Z,33.98
2023-02-15T12:02:53.254Z,33.25
2023-02-15T12:04:19.152Z,32.10
2023-02-15T12:05:24.515Z,32.74
2023-02-15T12:06:30.512Z,33.35
2023-02-15T12:07:37.716Z,34.24
2023-02-15T12:08:43.496Z,35.34
2023-02-15T12:09:57.634Z,34.81
2023-02-15T12:11:06.681Z,35.22
2023-02-15T12:12:34.107Z,34.29
2023-02-15T12:13:35.474Z,34.34
2023-02-15T12:14:57.537Z,34.66
2023-02-15T12:16:05.478Z,35.23
2023-02-15T12:17:14.269Z,35.30
2023-02-15T12:18:26.582Z,35.23
2023-02-15T12:19:37.935Z,35.45
2023-02-15T12:20:39.612Z,35.63
2023-02-15T12:21:42.838Z,35.58
2023-02-15T12:22:54.226Z,35.75
2023-02-15T12:24:10.635Z,35.94
2023-02-15T12:25:26.831Z,35.78
2023-02-15T12:26:34.847Z,36.05
2023-02-15T12:27:36.600Z,35.61
2023-02-15T12:28:42.808Z,35.91
2023-02-15T12:29:53.603Z,36.25
2023-02-15T12:30:57.511Z,36.51
2023-02-15T12:32:00.215Z,36.87
2023-02-15T12:33:34.058Z,36.39
2023-02-15T12:34:44.667Z,35.95
2023-02-15T12:35:50.195Z,35.77
2023-02-15T12:37:01.232Z,36.00
2023-02-15T12:38:11.373Z,35.93
2023-02-15T12:39:12.755Z,36.09
2023-02-15T12:40:41.196Z,36.48
2023-02-15T12:41:57.817Z,36.07
2023-02-15T12:42:59.847Z,36.08
2023-02-15T12:44:17.028Z,35.71
2023-02-15T12:45:31.322Z,36.37
2023-02-15T12:46:37.913Z,36.06
2023-02-15T12:47:39.673Z,36.36
2023-02-15T12:48:41.286Z,36.53
2023-02-15T12:49:47.623Z,36.25
2023-02-15T12:50:58.032Z,36.04
2023-02-15T12:52:07.674Z,35.69
2023-02-15T12:53:16.986Z,35.58
2023-02-15T12:54:41.717Z,35.52
2023-02-15T12:55:56.993Z,35.82
2023-02-15T12:56:59.871Z,36.03
2023-02-15T12:58:19.278Z,36.41
2023-02-15T12:59:23.210Z,37.38
2023-02-15T13:00:28.681Z,36.84
2023-02-15T13:01:33.254Z,36.95
2023-02-15T13:02:47.866Z,36.83
2023-02-15T13:03:58.389Z,36.66
2023-02-15T13:05:19.417Z,36.92
2023-02-15T13:06:21.857Z,36.54
2023-02-15T13:07:26.479Z,36.43
2023-02-15T13:08:31.488Z,36.37
2023-02-15T13:09:33.193Z,35.43
2023-02-15T13:10:53.091Z,36.31
2023-02-15T13:11:55.158Z,35.33
2023-02-15T13:12:58.842Z,35.52
2023-02-15T13:14:04.129Z,34.76
2023-02-15T13:15:44.484Z,34.54
2023-02-15T13:16:49.145Z,33.17
2023-02-15T13:17:50.766Z,33.24
2023-02-15T13:18:53.002Z,32.71
2023-02-15T13:19:57.729Z,32.35
2023-02-15T13:21:10.651Z,32.05
2023-02-15T13:22:25.287Z,31.81
2023-02-15T13:23:32.320Z,30.87
2023-02-15T13:24:38.658Z,31.19
2023-02-15T13:25:51.173Z,31.03
2023-02-15T13:27:12.895Z,31.22
2023-02-15T13:28:19.132Z,30.75
2023-02-15T13:29:28.150Z,31.26
2023-02-15T13:30:35.943Z,31.38
2023-02-15T13:31:37.718Z,31.27
2023-02-15T13:32:42.003Z,31.16
2023-02-15T13:33:48.016Z,31.29
2023-02-15T13:34:49.575Z,30.91
2023-02-15T13:36:18.907Z,31.85
2023-02-15T13:37:54.559Z,32.26
2023-02-15T13:39:09.558Z,32.76
2023-02-15T13:40:26.249Z,32.87
2023-02-15T13:42:14.221Z,32.85
2023-02-15T13:43:38.910Z,32.14
2023-02-15T13:44:50.622Z,31.80
2023-02-15T13:46:13.844Z,32.48
2023-02-15T13:47:25.154Z,32.72
2023-02-15T13:48:45.735Z,33.04
2023-02-15T13:49:57.220Z,32.46
2023-02-15T13:51:04.784Z,32.42
2023-02-15T13:52:19.126Z,31.51
2023-02-15T13:53:45.938Z,31.78
2023-02-15T13:55:06.848Z,31.39
2023-02-15T13:56:26.810Z,31.99
2023-02-15T13:57:47.038Z,32.11
2023-02-15T13:59:04.967Z,32.03
2023-02-15T14:00:15.264Z,31.70
2023-02-15T14:01:48.827Z,31.45
2023-02-15T14:03:14.772Z,31.81
2023-02-15T14:05:04.290Z,32.49
2023-02-15T14:06:16.431Z,32.31
2023-02-15T14:07:17.819Z,32.14
2023-02-15T14:08:39.139Z,31.80
2023-02-15T14:09:49.775Z,31.70
2023-02-15T14:11:07.994Z,31.80
2023-02-15T14:12:27.671Z,32.35
2023-02-15T14:13:55.842Z,32.72
2023-02-15T14:15:00.212Z,32.66
2023-02-15T14:16:09.950Z,32.61
2023-02-15T14:17:30.997Z,31.96
2023-02-15T14:18:44.466Z,32.20
2023-02-15T14:19:51.096Z,31.98
2023-02-15T14:21:01.250Z,32.21
2023-02-15T14:22:09.250Z,32.84
2023-02-15T14:23:20.618Z,32.33
2023-02-15T14:24:34.741Z,32.54
2023-02-15T14:25:58.960Z,33.13
2023-02-15T14:27:24.993Z,32.92
2023-02-15T14:28:42.121Z,33.89
2023-02-15T14:29:50.671Z,33.80
2023-02-15T14:30:53.958Z,33.81
2023-02-15T14:32:01.200Z,33.83
2023-02-15T14:33:09.844Z,33.97
2023-02-15T14:34:29.037Z,34.41
2023-02-15T14:35:31.270Z,34.22
2023-02-15T14:36:34.252Z,34.14
2023-02-15T14:38:28.203Z,34.78
2023-02-15T14:40:02.109Z,34.75
2023-02-15T14:41:17.796Z,34.96
2023-02-15T14:42:26.582Z,35.54
2023-02-15T14:43:58.914Z,36.27
2023-02-15T14:45:14.334Z,36.27
2023-02-15T14:46:26.742Z,36.44
2023-02-15T14:47:41.221Z,35.87
2023-02-15T14:48:47.366Z,36.13
2023-02-15T14:49:48.874Z,35.76
2023-02-15T14:50:50.359Z,35.69
2023-02-15T14:51:52.141Z,36.11
2023-02-15T14:53:36.929Z,36.21
2023-02-15T14:54:38.782Z,36.09
2023-02-15T14:55:40.466Z,36.63
2023-02-15T14:56:41.887Z,36.58
2023-02-15T14:57:57.926Z,36.35
2023-02-15T14:59:09.922Z,36.38
2023-02-15T15:00:40.907Z,36.16
2023-02-15T15:01:51.409Z,36.36
2023-02-15T15:02:53.822Z,36.72
2023-02-15T15:04:00.148Z,36.45
2023-02-15T15:05:11.048Z,36.71
2023-02-15T15:06:27.743Z,36.63
2023-02-15T15:07:51.745Z,37.21
2023-02-15T15:09:20.840Z,37.08
2023-02-15T15:10:22.229Z,37.54
2023-02-15T15:11:42.614Z,37.69
2023-02-15T15:12:49.154Z,38.23
2023-02-15T15:13:56.404Z,38.34
2023-02-15T15:14:57.814Z,38.26
2023-02-15T15:16:36.050Z,38.06
2023-02-15T15:17:39.045Z,38.46
2023-02-15T15:18:49.119Z,38.69
2023-02-15T15:19:52.405Z,38.42
2023-02-15T15:20:54.302Z,38.29
2023-02-15T15:21:57.708Z,38.34
2023-02-15T15:23:17.566Z,38.49
2023-02-15T15:24:37.600Z,38.56
2023-02-15T15:25:39.632Z,38.73
2023-02-15T15:26:49.524Z,39.09
2023-02-15T15:27:54.916Z,39.12
2023-02-15T15:28:59.492Z,39.19
2023-02-15T15:30:01.042Z,39.00
2023-02-15T15:31:21.465Z,39.10
2023-02-15T15:32:32.404Z,39.27
2023-02-15T15:34:18.208Z,39.03
2023-02-15T15:35:37.443Z,38.97
2023-02-15T15:37:03.288Z,39.53
2023-02-15T15:38:31.900Z,39.68
2023-02-15T15:39:54.456Z,39.68
2023-02-15T15:41:11.052Z,39.54
2023-02-15T15:42:14.103Z,39.46
2023-02-15T15:43:54.044Z,39.96
2023-02-15T15:45:19.839Z,39.88
2023-02-15T15:46:49.090Z,40.41
2023-02-15T15:48:09.747Z,40.86
2023-02-15T15:49:16.560Z,40.82
2023-02-15T15:50:20.152Z,41.30
2023-02-15T15:51:30.086Z,41.52
2023-02-15T15:52:36.302Z,41.69
2023-02-15T15:53:45.252Z,42.39
2023-02-15T15:54:51.177Z,42.92
2023-02-15T15:55:59.770Z,43.07
2023-02-15T15:57:04.473Z,43.29
2023-02-15T15:58:08.194Z,43.34
2023-02-15T15:59:19.483Z,43.66
2023-02-15T16:00:55.032Z,44.03
2023-02-15T16:01:57.104Z,44.46
2023-02-15T16:02:58.487Z,44.44
2023-02-15T16:04:00.351Z,44.42
2023-02-15T16:05:09.541Z,44.97
2023-02-15T16:06:36.180Z,45.32
2023-02-15T16:07:41.234Z,45.66
2023-02-15T16:08:42.684Z,46.58
2023-02-15T16:09:59.456Z,46.79
2023-02-15T16:11:11.013Z,47.26
2023-02-15T16:12:18.411Z,48.10
2023-02-15T16:13:19.941Z,48.44
2023-02-15T16:14:33.034Z,48.68
2023-02-15T16:15:53.337Z,49.28
2023-02-15T16:16:58.271Z,50.16
2023-02-15T16:18:01.325Z,50.68
2023-02-15T16:19:03.739Z,51.14
2023-02-15T16:20:19.427Z,51.70
2023-02-15T16:21:24.146Z,52.03
2023-02-15T16:22:30.046Z,52.56
2023-02-15T16:23:37.440Z,53.20
2023-02-15T16:24:51.440Z,54.13
2023-02-15T16:26:14.010Z,55.27
2023-02-15T16:27:38.487Z,56.39
2023-02-15T16:28:40.236Z,56.81
2023-02-15T16:29:41.705Z,57.07
2023-02-15T16:30:43.844Z,57.30
2023-02-15T16:32:21.286Z,58.16
2023-02-15T16:33:22.713Z,58.19
2023-02-15T16:34:24.104Z,57.89
2023-02-15T16:35:25.500Z,58.79
2023-02-15T16:36:29.352Z,59.05
2023-02-15T16:37:35.578Z,59.16
2023-02-15T16:38:43.058Z,59.25
2023-02-15T16:39:46.033Z,59.57
2023-02-15T16:40:56.434Z,59.49
2023-02-15T16:41:58.326Z,59.92
2023-02-15T16:43:05.041Z,60.33
2023-02-15T16:44:13.774Z,60.40
2023-02-15T16:45:19.206Z,60.15
